Time;durP1;ratioP1;P1;durP2;ratioP2;P2;SDS_P1;SDS_P2;PMS_P1;PMS_P2;Temp;Humidity;BMP_temperature;BMP_pressure;BME280_temperature;BME280_humidity;BME280_pressure;Samples;Min_cycle;Max_cycle;Signal;HPM_P1;HPM_P2
2021/01/01 00:01:40;;;;;;;41.45;23.95;;;;;;;1.80;85.13;99721.16;1740780;80;25865;-85
2021/01/01 00:04:08;;;;;;;39.10;23.22;;;;;;;1.88;85.24;99741.97;1739381;79;25719;-84
2021/01/01 00:06:37;;;;;;;38.60;23.65;;;;;;;1.88;85.24;99741.97;1733753;80;25819;-84
2021/01/01 00:09:06;;;;;;;38.25;23.00;;;;;;;1.89;85.32;99737.62;1745005;81;25642;-83
2021/01/01 00:11:34;;;;;;;35.03;21.95;;;;;;;1.74;85.17;99721.16;1746087;81;26002;-85
2021/01/01 00:14:01;;;;;;;40.10;23.62;;;;;;;1.68;85.17;99716.50;1764085;79;25771;-84
2021/01/01 00:16:27;;;;;;;39.95;23.02;;;;;;;1.90;85.23;99741.81;1769928;79;25836;-86
2021/01/01 00:18:54;;;;;;;34.55;21.68;;;;;;;1.93;85.26;99742.86;1766111;79;25925;-85
2021/01/01 00:21:20;;;;;;;33.53;21.62;;;;;;;1.97;85.19;99747.64;1767139;79;26397;-85
2021/01/01 00:23:47;;;;;;;34.53;20.35;;;;;;;1.99;85.10;99744.92;1765994;79;25665;-85
2021/01/01 00:26:15;;;;;;;33.90;22.30;;;;;;;2.01;85.06;99746.91;1761558;79;25751;-85
2021/01/01 00:28:47;;;;;;;37.95;23.52;;;;;;;1.98;85.03;99750.55;1762575;79;25805;-85
2021/01/01 00:31:19;;;;;;;38.73;23.70;;;;;;;2.02;85.56;99756.75;1758198;79;25682;-85
2021/01/01 00:33:47;;;;;;;35.30;22.10;;;;;;;2.02;85.56;99756.75;1767005;80;25710;-82
2021/01/01 00:36:14;;;;;;;36.75;23.12;;;;;;;2.09;85.49;99758.70;1759839;79;26551;-85
2021/01/01 00:38:51;;;;;;;37.58;22.50;;;;;;;2.17;85.58;99756.80;1766970;80;25797;-83
2021/01/01 00:41:29;;;;;;;40.95;23.47;;;;;;;2.23;85.42;99754.98;1764136;79;25773;-85
2021/01/01 00:43:58;;;;;;;39.15;23.12;;;;;;;2.25;85.18;99756.98;1756893;80;25737;-83
2021/01/01 00:46:27;;;;;;;31.35;20.57;;;;;;;2.28;85.35;99754.63;1762599;79;25781;-84
2021/01/01 00:48:56;;;;;;;38.45;23.83;;;;;;;2.28;84.95;99754.63;1764246;80;25514;-83
2021/01/01 00:51:31;;;;;;;40.17;24.52;;;;;;;2.27;84.89;99758.97;1763307;80;26297;-84
2021/01/01 00:54:00;;;;;;;38.02;24.95;;;;;;;2.27;84.71;99751.70;1765261;80;25503;-83
2021/01/01 00:56:28;;;;;;;41.15;25.82;;;;;;;2.23;84.44;99757.57;1765642;79;25835;-84
2021/01/01 00:58:56;;;;;;;47.70;28.00;;;;;;;2.19;84.46;99747.18;1762690;80;26068;-85
2021/01/01 01:01:26;;;;;;;42.50;26.10;;;;;;;2.18;84.48;99755.84;1766231;80;26256;-83
2021/01/01 01:03:55;;;;;;;42.93;25.83;;;;;;;2.15;84.36;99754.80;1757756;80;25874;-83
2021/01/01 01:06:24;;;;;;;;;;;;;;;1.99;84.15;99739.77;1773340;79;25878;-83
2021/01/01 01:08:52;;;;;;;40.33;25.00;;;;;;;2.10;84.41;99751.78;1768738;79;25761;-85
2021/01/01 01:11:26;;;;;;;43.95;26.00;;;;;;;2.14;84.61;99756.57;1782375;79;25731;-83
2021/01/01 01:13:55;;;;;;;46.15;27.22;;;;;;;2.17;84.52;99758.89;1771132;79;25752;-83
2021/01/01 01:16:31;;;;;;;43.63;27.90;;;;;;;2.12;84.43;99742.17;1776848;79;26040;-81
2021/01/01 01:19:01;;;;;;;45.38;26.93;;;;;;;2.12;84.43;99742.17;1777733;79;25523;-84
2021/01/01 01:21:28;;;;;;;49.77;30.60;;;;;;;2.29;84.51;99758.38;1762134;79;25840;-85
2021/01/01 01:23:55;;;;;;;45.00;29.27;;;;;;;2.17;84.32;99738.27;1764733;79;26382;-82
2021/01/01 01:26:22;;;;;;;44.60;29.12;;;;;;;2.17;84.32;99738.27;1759759;80;26306;-84
2021/01/01 01:28:50;;;;;;;47.78;29.23;;;;;;;2.21;84.06;99746.59;1762577;80;25789;-82
2021/01/01 01:31:17;;;;;;;49.10;29.15;;;;;;;2.19;83.93;99757.02;1767133;80;25777;-84
2021/01/01 01:33:44;;;;;;;40.88;26.73;;;;;;;2.17;84.06;99756.80;1765572;80;25873;-82
2021/01/01 01:36:11;;;;;;;48.23;28.10;;;;;;;2.18;84.05;99756.68;1752799;80;26419;-83
2021/01/01 01:38:37;;;;;;;42.43;25.23;;;;;;;2.12;83.89;99754.58;1748407;80;25382;-83
2021/01/01 01:41:04;;;;;;;41.77;27.00;;;;;;;2.12;83.89;99754.58;1766976;80;25795;-82
2021/01/01 01:43:31;;;;;;;46.58;27.45;;;;;;;2.11;83.96;99760.69;1757841;80;25749;-82
2021/01/01 01:45:57;;;;;;;46.23;27.67;;;;;;;2.05;83.93;99752.66;1755355;79;26315;-82
2021/01/01 01:48:29;;;;;;;44.03;28.55;;;;;;;2.08;84.08;99751.92;1764312;79;25805;-82
2021/01/01 01:50:55;;;;;;;49.33;31.25;;;;;;;2.11;84.16;99754.25;1762803;80;25619;-82
2021/01/01 01:53:25;;;;;;;44.10;28.27;;;;;;;1.97;83.56;99739.91;1767796;80;25529;-85
2021/01/01 01:55:53;;;;;;;46.00;30.57;;;;;;;1.97;83.56;99739.91;1768123;80;25821;-82
2021/01/01 01:58:23;;;;;;;51.50;30.48;;;;;;;2.02;84.05;99752.88;1755651;79;25869;-83
2021/01/01 02:00:59;;;;;;;53.83;33.73;;;;;;;2.02;84.05;99752.88;1750460;80;26435;-82
2021/01/01 02:03:31;;;;;;;48.05;30.17;;;;;;;2.01;84.19;99755.94;1757421;80;26333;-83
2021/01/01 02:05:59;;;;;;;52.40;33.25;;;;;;;2.02;84.35;99754.17;1763478;79;25897;-82
2021/01/01 02:08:26;;;;;;;52.73;32.40;;;;;;;1.92;84.27;99730.92;1746636;80;25817;-84
2021/01/01 02:10:57;;;;;;;51.18;31.25;;;;;;;2.00;84.25;99751.73;1765243;80;25714;-84
2021/01/01 02:13:25;;;;;;;55.08;33.60;;;;;;;2.02;84.28;99749.86;1760348;80;25758;-84
2021/01/01 02:15:52;;;;;;;52.00;31.45;;;;;;;2.01;84.30;99750.78;1765264;79;25745;-83
2021/01/01 02:18:40;;;;;;;54.15;33.40;;;;;;;1.95;84.16;99753.39;1764010;80;26392;-83
2021/01/01 02:21:08;;;;;;;51.25;31.27;;;;;;;1.95;84.38;99747.42;1760766;80;25847;-84
2021/01/01 02:23:35;;;;;;;54.50;33.40;;;;;;;1.97;84.23;99748.94;1758842;80;25653;-83
2021/01/01 02:26:02;;;;;;;55.25;34.08;;;;;;;1.91;84.38;99733.98;1753456;79;25834;-83
2021/01/01 02:28:29;;;;;;;51.37;33.80;;;;;;;2.05;84.50;99750.89;1753295;80;26354;-83
2021/01/01 02:30:55;;;;;;;55.83;34.10;;;;;;;2.05;84.50;99750.89;1759005;80;26125;-84
2021/01/01 02:33:22;;;;;;;55.38;34.20;;;;;;;2.02;83.99;99745.99;1762197;80;25714;-85
2021/01/01 02:35:48;;;;;;;60.65;36.13;;;;;;;1.97;84.00;99752.80;1755177;80;25746;-85
2021/01/01 02:38:14;;;;;;;58.63;34.38;;;;;;;2.00;84.20;99747.87;1760384;79;26469;-85
2021/01/01 02:40:41;;;;;;;58.80;35.15;;;;;;;2.02;84.30;99749.02;1763328;80;25749;-84
2021/01/01 02:43:19;;;;;;;62.98;38.35;;;;;;;2.04;84.41;99747.14;1766226;80;25773;-83
2021/01/01 02:45:45;;;;;;;54.25;35.43;;;;;;;2.06;84.20;99745.26;1747439;80;25785;-82
2021/01/01 02:48:18;;;;;;;54.15;34.60;;;;;;;2.06;84.20;99745.26;1763994;80;25833;-85
2021/01/01 02:50:46;;;;;;;55.33;34.35;;;;;;;2.07;83.90;99757.19;1751306;80;26332;-82
2021/01/01 02:53:12;;;;;;;58.42;35.88;;;;;;;2.08;83.90;99751.92;1763700;80;25838;-83
2021/01/01 02:55:40;;;;;;;55.33;33.63;;;;;;;2.13;83.93;99748.98;1762436;80;25258;-84
2021/01/01 02:58:07;;;;;;;59.67;36.30;;;;;;;2.14;83.72;99750.60;1761863;80;26331;-83
2021/01/01 03:00:38;;;;;;;60.63;36.50;;;;;;;2.10;83.67;99758.23;1762670;79;26269;-84
2021/01/01 03:03:04;;;;;;;62.83;36.33;;;;;;;2.10;83.67;99758.23;1761782;80;25800;-83
2021/01/01 03:05:31;;;;;;;58.90;36.65;;;;;;;2.06;83.74;99756.38;1755544;80;25958;-82
2021/01/01 03:07:58;;;;;;;55.30;34.92;;;;;;;1.87;83.63;99736.92;1758756;80;25976;-84
2021/01/01 03:10:24;;;;;;;61.02;37.73;;;;;;;1.87;83.63;99736.92;1769512;80;25663;-82
2021/01/01 03:12:51;;;;;;;52.33;32.45;;;;;;;1.91;83.52;99749.89;1766752;79;25837;-83
2021/01/01 03:15:17;;;;;;;49.05;31.77;;;;;;;1.90;83.57;99746.97;1763442;79;25740;-83
2021/01/01 03:17:44;;;;;;;49.63;31.70;;;;;;;1.77;83.59;99725.24;1771602;80;25706;-84
2021/01/01 03:20:13;;;;;;;53.90;34.08;;;;;;;1.96;83.67;99756.33;1749187;79;25758;-82
2021/01/01 03:22:40;;;;;;;53.13;32.73;;;;;;;1.97;83.57;99754.09;1726688;81;25779;-82
2021/01/01 03:25:08;;;;;;;54.03;33.10;;;;;;;1.95;83.47;99752.58;1749318;79;25879;-82
2021/01/01 03:27:35;;;;;;;48.85;32.33;;;;;;;1.93;83.30;99751.88;1748831;81;25739;-83
2021/01/01 03:30:05;;;;;;;60.95;36.35;;;;;;;1.87;83.13;99758.34;1753504;79;26297;-84
2021/01/01 03:32:31;;;;;;;55.50;35.13;;;;;;;1.80;83.01;99758.52;1750955;79;25746;-82
2021/01/01 03:34:58;;;;;;;65.67;38.80;;;;;;;1.80;83.41;99762.82;1758956;79;26011;-83
2021/01/01 03:37:25;;;;;;;62.73;36.50;;;;;;;1.84;83.55;99752.62;1748579;79;25989;-83
2021/01/01 03:39:54;;;;;;;59.38;34.03;;;;;;;1.80;83.77;99739.63;1752075;79;26424;-83
2021/01/01 03:42:21;;;;;;;52.15;33.15;;;;;;;1.80;83.77;99739.63;1732118;80;26242;-84
2021/01/01 03:45:02;;;;;;;51.15;31.15;;;;;;;1.76;83.09;99765.65;1739321;81;26325;-86
2021/01/01 03:47:28;;;;;;;58.63;35.20;;;;;;;1.76;83.09;99765.65;1767834;79;26346;-87
2021/01/01 03:49:55;;;;;;;59.67;35.05;;;;;;;1.70;83.30;99764.05;1752897;79;26495;-85
2021/01/01 03:52:21;;;;;;;54.30;34.00;;;;;;;1.69;83.35;99760.66;1737826;81;25799;-86
2021/01/01 03:54:47;;;;;;;55.45;34.08;;;;;;;1.68;83.32;99764.63;1762431;79;25674;-85
2021/01/01 03:57:14;;;;;;;57.95;34.00;;;;;;;1.68;83.38;99760.77;1755844;79;25800;-86
2021/01/01 03:59:40;;;;;;;59.80;35.52;;;;;;;1.61;83.23;99760.90;1768880;79;25811;-86
2021/01/01 04:02:07;;;;;;;60.78;34.53;;;;;;;1.53;83.39;99755.09;1748561;79;25705;-86
2021/01/01 04:04:33;;;;;;;61.08;37.93;;;;;;;1.49;83.65;99759.65;1727049;81;26421;-85
2021/01/01 04:06:59;;;;;;;53.95;33.08;;;;;;;1.52;83.96;99758.59;1736394;80;25893;-87
2021/01/01 04:09:26;;;;;;;51.85;32.28;;;;;;;1.56;84.00;99754.84;1737240;79;26329;-85
2021/01/01 04:11:52;;;;;;;47.10;29.70;;;;;;;1.60;84.04;99756.70;1739998;81;25739;-86
2021/01/01 04:14:19;;;;;;;53.95;33.45;;;;;;;1.67;84.03;99759.14;1748818;81;25976;-86
2021/01/01 04:16:46;;;;;;;58.05;35.28;;;;;;;1.66;83.96;99760.06;1751709;79;25728;-85
2021/01/01 04:19:12;;;;;;;59.20;34.05;;;;;;;1.68;83.95;99758.20;1755696;79;26385;-86
2021/01/01 04:21:47;;;;;;;65.12;36.53;;;;;;;1.68;83.77;99761.58;1751933;80;25713;-85
2021/01/01 04:24:17;;;;;;;61.18;37.42;;;;;;;1.72;83.90;99762.17;1762007;79;25929;-87
2021/01/01 04:26:47;;;;;;;68.02;40.38;;;;;;;1.66;84.05;99749.28;1748618;79;26369;-85
2021/01/01 04:29:14;;;;;;;64.77;38.58;;;;;;;1.76;83.89;99760.97;1751777;80;26395;-86
2021/01/01 04:31:40;;;;;;;57.55;31.70;;;;;;;1.73;83.73;99763.80;1762396;79;26407;-85
2021/01/01 04:34:08;;;;;;;52.43;30.70;;;;;;;1.70;83.33;99764.05;1761031;80;25816;-86
2021/01/01 04:36:35;;;;;;;53.65;31.73;;;;;;;1.68;83.46;99769.31;1756375;79;26308;-86
2021/01/01 04:39:04;;;;;;;61.85;34.60;;;;;;;1.74;83.78;99764.13;1758180;80;25780;-86
2021/01/01 04:41:32;;;;;;;59.18;36.15;;;;;;;1.74;83.78;99764.13;1761100;79;25824;-86
2021/01/01 04:43:59;;;;;;;52.83;33.67;;;;;;;1.85;83.88;99765.84;1758631;81;26699;-87
2021/01/01 04:46:32;;;;;;;57.48;34.23;;;;;;;1.87;83.52;99763.97;1755147;79;26306;-87
2021/01/01 04:49:01;;;;;;;61.18;35.50;;;;;;;1.84;83.50;99768.09;1751385;80;25703;-87
2021/01/01 04:51:28;;;;;;;59.35;36.20;;;;;;;1.72;83.53;99769.42;1760825;81;25646;-86
2021/01/01 04:53:57;;;;;;;51.77;30.80;;;;;;;1.72;83.53;99769.42;1751704;80;25815;-86
2021/01/01 04:56:24;;;;;;;56.48;33.20;;;;;;;1.69;83.38;99768.83;1762058;79;25711;-87
2021/01/01 04:58:52;;;;;;;61.98;31.93;;;;;;;1.55;83.00;99763.50;1760509;79;26326;-87
2021/01/01 05:01:25;;;;;;;53.40;31.17;;;;;;;1.49;83.23;99771.23;1750101;81;25743;-86
2021/01/01 05:03:51;;;;;;;59.53;35.35;;;;;;;1.52;83.50;99770.99;1750100;81;25792;-86
2021/01/01 05:06:29;;;;;;;56.73;32.28;;;;;;;1.58;83.65;99770.16;1756313;80;26584;-85
2021/01/01 05:09:01;;;;;;;53.23;32.30;;;;;;;1.62;83.62;99771.09;1757647;81;25736;-88
2021/01/01 05:11:28;;;;;;;56.73;32.95;;;;;;;1.61;83.60;99771.20;1759244;80;25857;-87
2021/01/01 05:14:04;;;;;;;55.55;29.77;;;;;;;1.56;83.86;99778.03;1759243;79;26298;-87
2021/01/01 05:16:30;;;;;;;57.05;34.15;;;;;;;1.56;83.86;99778.03;1755254;79;26417;-88
2021/01/01 05:18:57;;;;;;;55.95;34.25;;;;;;;1.46;83.58;99780.50;1762035;80;25758;-87
2021/01/01 05:21:27;;;;;;;57.80;34.92;;;;;;;1.46;83.58;99780.50;1765505;81;26420;-87
2021/01/01 05:23:56;;;;;;;63.00;35.30;;;;;;;1.43;83.59;99779.45;1765035;80;26364;-87
2021/01/01 05:26:28;;;;;;;60.60;33.20;;;;;;;1.44;83.72;99783.66;1762739;81;25468;-85
2021/01/01 05:29:06;;;;;;;52.78;33.00;;;;;;;1.45;83.74;99790.46;1759986;81;25619;-86
2021/01/01 05:31:40;;;;;;;56.33;32.13;;;;;;;1.39;83.52;99797.39;1757816;81;25918;-86
2021/01/01 05:34:10;;;;;;;53.52;31.70;;;;;;;1.39;83.52;99797.39;1754256;80;25755;-87
2021/01/01 05:36:44;;;;;;;49.23;30.72;;;;;;;1.33;83.54;99792.69;1754602;80;26478;-86
2021/01/01 05:39:21;;;;;;;54.42;34.15;;;;;;;1.39;83.80;99793.97;1758476;80;25714;-86
2021/01/01 05:41:53;;;;;;;55.88;33.40;;;;;;;1.36;83.69;99792.45;1762188;81;25852;-87
2021/01/01 05:44:32;;;;;;;52.13;31.73;;;;;;;1.33;83.67;99802.98;1764558;79;25702;-86
2021/01/01 05:47:07;;;;;;;57.62;33.23;;;;;;;1.30;83.60;99807.91;1765090;80;25764;-86
2021/01/01 05:49:38;;;;;;;53.38;30.48;;;;;;;1.20;83.52;99809.58;1760882;80;25616;-86
2021/01/01 05:52:15;;;;;;;53.78;32.15;;;;;;;1.05;83.49;99811.56;1759715;81;25462;-85
2021/01/01 05:54:46;;;;;;;52.90;31.82;;;;;;;1.00;83.84;99807.70;1758751;79;25592;-86
2021/01/01 05:57:14;;;;;;;58.87;33.02;;;;;;;1.04;83.97;99808.65;1756124;81;26344;-87
2021/01/01 05:59:47;;;;;;;53.10;29.45;;;;;;;1.04;84.00;99811.69;1760399;79;25431;-87
2021/01/01 06:02:15;;;;;;;56.37;33.33;;;;;;;1.10;84.26;99812.03;1753346;80;25718;-87
2021/01/01 06:04:42;;;;;;;56.77;33.13;;;;;;;1.16;84.15;99814.59;1760945;81;25721;-87
2021/01/01 06:07:11;;;;;;;56.88;32.63;;;;;;;1.21;84.18;99815.06;1749668;80;26368;-87
2021/01/01 06:09:40;;;;;;;57.62;32.15;;;;;;;1.26;84.23;99807.81;1753736;80;25777;-86
2021/01/01 06:12:11;;;;;;;52.03;32.50;;;;;;;1.37;84.25;99812.13;1756111;80;25554;-87
2021/01/01 06:14:41;;;;;;;53.80;33.88;;;;;;;1.43;84.07;99815.50;1756503;81;25784;-88
2021/01/01 06:17:13;;;;;;;56.75;35.68;;;;;;;1.46;84.05;99815.73;1731180;81;25529;-86
2021/01/01 06:19:59;;;;;;;63.17;35.78;;;;;;;1.44;83.97;99811.16;1761690;81;26748;-86
2021/01/01 06:22:29;;;;;;;57.67;33.48;;;;;;;1.46;84.20;99811.39;1758853;81;25509;-87
2021/01/01 06:24:58;;;;;;;;;;;;;;;1.49;84.18;99811.63;1753869;80;25831;-86
2021/01/01 06:27:28;;;;;;;57.13;32.65;;;;;;;1.51;84.01;99807.19;1755630;81;25851;-86
2021/01/01 06:29:57;;;;;;;;;;;;;;;1.54;84.20;99803.89;1753639;81;25762;-87
2021/01/01 06:32:24;;;;;;;52.58;32.65;;;;;;;1.62;84.16;99803.77;1745257;81;26965;-88
2021/01/01 06:34:52;;;;;;;56.77;34.50;;;;;;;1.65;84.06;99806.09;1749549;81;26347;-86
2021/01/01 06:37:38;;;;;;;60.05;35.08;;;;;;;1.70;84.14;99807.84;1756646;79;26357;-87
2021/01/01 06:40:24;;;;;;;61.02;35.13;;;;;;;1.70;83.91;99809.13;1751051;79;25836;-88
2021/01/01 06:43:07;;;;;;;54.88;32.58;;;;;;;1.70;83.94;99806.08;1726224;80;25674;-86
2021/01/01 06:45:47;;;;;;;56.15;33.25;;;;;;;1.65;83.77;99811.24;1761247;80;26408;-87
2021/01/01 06:48:24;;;;;;;53.02;33.05;;;;;;;1.51;83.29;99808.47;1761299;80;26652;-87
2021/01/01 06:50:53;;;;;;;53.98;32.20;;;;;;;1.39;83.41;99801.25;1761520;79;26205;-87
2021/01/01 06:53:28;;;;;;;57.73;33.28;;;;;;;1.39;83.60;99808.97;1717024;82;25757;-87
2021/01/01 06:56:11;;;;;;;57.45;33.78;;;;;;;1.38;83.69;99807.79;1752793;80;25953;-86
2021/01/01 06:58:38;;;;;;;54.90;31.80;;;;;;;1.43;83.87;99809.06;1740006;80;25779;-88
2021/01/01 07:01:15;;;;;;;50.05;30.82;;;;;;;1.50;83.88;99806.81;1738172;80;25750;-86
2021/01/01 07:03:42;;;;;;;61.70;36.10;;;;;;;1.48;83.53;99808.23;1745536;80;25551;-87
2021/01/01 07:06:14;;;;;;;60.43;37.17;;;;;;;1.50;83.82;99809.39;1746252;80;26343;-88
2021/01/01 07:08:44;;;;;;;59.98;35.95;;;;;;;1.60;84.10;99810.78;1707489;81;26061;-87
2021/01/01 07:11:20;;;;;;;;;;;;;;;1.65;84.02;99809.48;1717274;81;26540;-88
2021/01/01 07:13:52;;;;;;;56.10;35.50;;;;;;;1.72;84.09;99811.93;1711894;81;25813;-86
2021/01/01 07:16:22;;;;;;;56.18;32.95;;;;;;;1.70;83.95;99813.80;1770227;79;25745;-87
2021/01/01 07:18:50;;;;;;;57.40;34.92;;;;;;;1.71;83.78;99809.46;1772209;79;25780;-87
2021/01/01 07:21:18;;;;;;;56.85;34.30;;;;;;;1.70;83.85;99810.41;1771648;80;25672;-87
2021/01/01 07:23:47;;;;;;;54.15;33.25;;;;;;;1.68;83.64;99813.09;1774584;79;25898;-86
2021/01/01 07:26:15;;;;;;;57.38;33.33;;;;;;;1.68;83.83;99814.39;1766027;79;25537;-87
2021/01/01 07:28:47;;;;;;;62.40;33.95;;;;;;;1.72;83.93;99818.84;1775337;79;25530;-87
2021/01/01 07:31:18;;;;;;;55.15;32.45;;;;;;;1.75;84.05;99819.89;1775797;79;25591;-86
2021/01/01 07:33:45;;;;;;;62.17;34.13;;;;;;;1.77;84.05;99821.41;1769473;79;25891;-86
2021/01/01 07:36:13;;;;;;;57.38;34.38;;;;;;;1.81;83.87;99816.00;1773639;79;25616;-87
2021/01/01 07:38:43;;;;;;;57.40;35.65;;;;;;;1.76;83.76;99815.07;1774568;79;25476;-87
2021/01/01 07:41:10;;;;;;;58.30;34.15;;;;;;;1.62;83.90;99794.75;1767851;79;26450;-86
2021/01/01 07:43:38;;;;;;;58.52;31.15;;;;;;;1.77;83.75;99820.11;1772720;79;26632;-88
2021/01/01 07:46:08;;;;;;;50.23;31.37;;;;;;;1.60;83.18;99822.38;1770183;79;26341;-88
2021/01/01 07:48:35;;;;;;;57.78;31.85;;;;;;;1.54;83.46;99821.91;1769519;79;26389;-87
2021/01/01 07:51:06;;;;;;;57.90;31.52;;;;;;;1.59;83.58;99834.44;1773214;80;25785;-86
2021/01/01 07:53:34;;;;;;;52.98;31.82;;;;;;;1.53;83.53;99829.78;1776114;79;25756;-87
2021/01/01 07:56:04;;;;;;;53.50;31.57;;;;;;;1.53;83.53;99829.78;1772399;79;25732;-86
2021/01/01 07:58:31;;;;;;;51.85;30.97;;;;;;;1.54;83.85;99827.06;1769396;79;33801;-85
2021/01/01 08:01:07;;;;;;;52.33;32.03;;;;;;;1.57;83.81;99825.20;1772792;79;25732;-86
2021/01/01 08:03:37;;;;;;;52.08;31.02;;;;;;;1.55;83.75;99834.31;1773363;79;26445;-86
2021/01/01 08:06:08;;;;;;;48.63;30.00;;;;;;;1.56;83.76;99833.39;1775831;79;25569;-87
2021/01/01 08:08:35;;;;;;;50.70;30.72;;;;;;;1.57;83.75;99840.65;1759397;79;25596;-87
2021/01/01 08:11:01;;;;;;;54.40;32.30;;;;;;;1.51;83.77;99836.32;1759235;79;26399;-86
2021/01/01 08:13:33;;;;;;;54.55;31.27;;;;;;;1.52;83.93;99839.70;1763652;79;26305;-88
2021/01/01 08:16:13;;;;;;;50.23;29.05;;;;;;;1.55;84.04;99841.59;1758736;79;25790;-87
2021/01/01 08:18:40;;;;;;;51.15;31.37;;;;;;;1.61;84.05;99843.31;1763181;79;26359;-86
2021/01/01 08:21:07;;;;;;;46.92;28.12;;;;;;;1.62;83.92;99850.94;1723292;81;25821;-85
2021/01/01 08:23:51;;;;;;;43.28;27.25;;;;;;;1.62;83.73;99847.08;1771331;79;25961;-86
2021/01/01 08:26:18;;;;;;;46.15;27.50;;;;;;;1.60;83.66;99841.22;1774884;79;27403;-86
2021/01/01 08:28:45;;;;;;;49.35;29.18;;;;;;;1.56;83.57;99843.70;1783755;79;25736;-85
2021/01/01 08:31:12;;;;;;;47.93;29.18;;;;;;;1.50;83.61;99846.28;1770145;79;25831;-86
2021/01/01 08:33:43;;;;;;;48.87;27.75;;;;;;;1.46;83.65;99848.73;1746990;80;25898;-85
2021/01/01 08:36:12;;;;;;;43.98;25.17;;;;;;;1.48;83.80;99852.48;1766822;79;26658;-85
2021/01/01 08:38:44;;;;;;;41.10;23.62;;;;;;;1.45;83.61;99849.69;1770342;79;26430;-85
2021/01/01 08:41:16;;;;;;;43.23;25.00;;;;;;;1.38;83.52;99853.66;1764785;79;25752;-85
2021/01/01 08:43:43;;;;;;;43.40;25.05;;;;;;;1.35;83.60;99858.23;1765419;79;25819;-87
2021/01/01 08:46:18;;;;;;;42.08;23.32;;;;;;;1.27;83.54;99857.53;1756588;79;25747;-86
2021/01/01 08:48:45;;;;;;;44.03;25.62;;;;;;;1.24;83.70;99859.05;1757863;80;25733;-86
2021/01/01 08:51:11;;;;;;;41.00;23.80;;;;;;;1.20;83.65;99861.05;1761983;80;26416;-87
2021/01/01 08:53:41;;;;;;;39.13;22.93;;;;;;;1.05;83.47;99865.59;1763219;79;25824;-85
2021/01/01 08:56:09;;;;;;;42.53;24.53;;;;;;;0.99;83.69;99869.11;1774711;79;25859;-87
2021/01/01 08:58:36;;;;;;;44.33;23.57;;;;;;;0.97;83.90;99865.83;1747348;80;25821;-86
2021/01/01 09:01:17;;;;;;;44.73;27.10;;;;;;;1.02;84.13;99867.59;1758120;79;25702;-85
2021/01/01 09:03:45;;;;;;;45.25;27.95;;;;;;;1.03;84.20;99875.18;1765520;79;26541;-86
2021/01/01 09:06:18;;;;;;;50.33;30.17;;;;;;;1.07;84.23;99872.74;1762082;79;26059;-87
2021/01/01 09:08:45;;;;;;;67.85;43.00;;;;;;;1.15;84.44;99872.64;1752739;80;26547;-87
2021/01/01 09:11:23;;;;;;;41.98;23.12;;;;;;;1.25;84.59;99873.55;1733316;81;25692;-85
2021/01/01 09:14:06;;;;;;;39.10;23.10;;;;;;;1.28;84.04;99882.33;1741229;80;25474;-87
2021/01/01 09:16:33;;;;;;;42.80;23.32;;;;;;;1.18;83.98;99885.27;1741354;80;25803;-87
2021/01/01 09:19:12;;;;;;;49.05;28.55;;;;;;;1.06;83.80;99882.70;1739576;79;26013;-87
2021/01/01 09:21:38;;;;;;;43.92;24.05;;;;;;;1.04;84.09;99874.73;1741141;79;26622;-87
2021/01/01 09:24:06;;;;;;;42.78;24.27;;;;;;;1.04;84.23;99882.45;1739406;80;25740;-86
2021/01/01 09:26:34;;;;;;;41.80;24.25;;;;;;;1.10;84.40;99882.80;1744762;79;25544;-86
2021/01/01 09:29:06;;;;;;;43.60;26.23;;;;;;;1.15;84.46;99871.35;1776198;79;25879;-88
2021/01/01 09:31:35;;;;;;;48.15;24.90;;;;;;;1.21;84.56;99874.27;1769904;79;25899;-87
2021/01/01 09:34:07;;;;;;;39.55;21.68;;;;;;;1.26;84.55;99870.87;1732168;80;25591;-86
2021/01/01 09:36:37;;;;;;;35.40;21.00;;;;;;;1.28;84.48;99874.16;1758021;79;25560;-86
2021/01/01 09:39:06;;;;;;;38.63;21.30;;;;;;;1.28;84.36;99878.47;1744141;79;25533;-87
2021/01/01 09:41:34;;;;;;;38.83;21.45;;;;;;;1.23;84.19;99884.45;1747705;80;25594;-86
2021/01/01 09:44:00;;;;;;;39.55;20.95;;;;;;;1.14;84.08;99888.52;1772781;79;25842;-87
2021/01/01 09:46:27;;;;;;;37.67;21.02;;;;;;;1.11;84.36;99883.14;1775891;80;25902;-87
2021/01/01 09:48:53;;;;;;;32.08;16.95;;;;;;;1.10;84.35;99878.94;1771265;79;25792;-86
2021/01/01 09:51:20;;;;;;;30.23;15.88;;;;;;;1.09;84.21;99879.04;1769595;79;26408;-86
2021/01/01 09:53:46;;;;;;;30.60;18.05;;;;;;;1.04;84.25;99875.55;1775264;79;25761;-86
2021/01/01 09:56:13;;;;;;;32.90;17.70;;;;;;;1.04;84.34;99872.16;1773238;80;26386;-88
2021/01/01 09:58:39;;;;;;;33.60;18.35;;;;;;;1.06;84.35;99872.84;1771936;79;26199;-86
2021/01/01 10:01:05;;;;;;;31.82;16.95;;;;;;;1.07;84.40;99874.03;1745867;80;25897;-87
2021/01/01 10:03:32;;;;;;;27.37;15.58;;;;;;;1.07;84.37;99873.22;1772970;80;25783;-87
2021/01/01 10:05:58;;;;;;;33.35;17.10;;;;;;;1.08;84.51;99870.98;1777304;79;25774;-88
2021/01/01 10:08:25;;;;;;;34.20;16.30;;;;;;;1.08;84.55;99877.41;1771079;79;25831;-88
2021/01/01 10:10:52;;;;;;;26.20;13.60;;;;;;;1.13;84.62;99874.50;1758598;80;25506;-87
2021/01/01 10:13:19;;;;;;;23.05;13.95;;;;;;;1.07;84.04;99873.22;1761031;79;25800;-87
2021/01/01 10:15:45;;;;;;;26.75;14.85;;;;;;;0.98;84.05;99877.31;1762275;80;25749;-87
2021/01/01 10:18:11;;;;;;;28.00;13.68;;;;;;;0.95;84.14;99876.70;1763683;80;25787;-87
2021/01/01 10:20:38;;;;;;;25.20;14.75;;;;;;;0.95;84.24;99876.70;1768815;79;25436;-86
2021/01/01 10:23:04;;;;;;;31.17;17.50;;;;;;;0.96;84.26;99879.17;1766208;80;26367;-85
2021/01/01 10:25:31;;;;;;;27.65;15.53;;;;;;;0.98;84.41;99880.33;1769471;79;25301;-86
2021/01/01 10:27:57;;;;;;;28.12;15.08;;;;;;;0.97;84.25;99871.80;1768049;79;25638;-84
2021/01/01 10:30:23;;;;;;;28.02;15.18;;;;;;;0.99;84.37;99872.98;1764712;80;25729;-86
2021/01/01 10:32:50;;;;;;;26.15;16.40;;;;;;;1.01;84.53;99871.92;1745232;80;25783;-85
2021/01/01 10:35:16;;;;;;;30.55;17.15;;;;;;;1.09;84.59;99862.31;1768181;79;25696;-88
2021/01/01 10:37:43;;;;;;;24.57;15.55;;;;;;;1.14;84.54;99866.65;1767095;79;25835;-86
2021/01/01 10:40:10;;;;;;;28.98;17.50;;;;;;;1.18;84.39;99863.39;1771894;79;25717;-88
2021/01/01 10:42:37;;;;;;;30.88;19.17;;;;;;;1.19;84.47;99856.83;1744570;80;25907;-85
2021/01/01 10:45:06;;;;;;;34.60;16.67;;;;;;;1.24;84.58;99854.72;1762370;80;25501;-87
2021/01/01 10:47:32;;;;;;;30.08;16.50;;;;;;;1.27;84.48;99857.53;1765012;79;25347;-86
2021/01/01 10:49:58;;;;;;;28.52;14.15;;;;;;;1.28;84.42;99855.30;1763254;79;25780;-87
2021/01/01 10:52:25;;;;;;;31.30;16.15;;;;;;;1.21;84.18;99856.72;1764162;80;25708;-85
2021/01/01 10:54:51;;;;;;;32.98;16.15;;;;;;;1.16;84.23;99853.20;1765307;80;25849;-88
2021/01/01 10:57:18;;;;;;;25.60;15.00;;;;;;;1.15;84.28;99855.44;1733828;81;25943;-88
2021/01/01 10:59:44;;;;;;;20.43;12.43;;;;;;;1.11;84.28;99852.26;1749638;80;26341;-86
2021/01/01 11:02:11;;;;;;;28.50;14.80;;;;;;;1.11;84.10;99854.02;1766897;79;25698;-86
2021/01/01 11:04:37;;;;;;;23.95;13.75;;;;;;;1.13;84.29;99853.91;1753756;80;25658;-87
2021/01/01 11:07:04;;;;;;;23.73;13.62;;;;;;;1.08;83.78;99852.97;1759469;79;26599;-85
2021/01/01 11:09:30;;;;;;;22.77;13.03;;;;;;;1.00;83.86;99863.02;1756925;79;26560;-86
2021/01/01 11:11:57;;;;;;;29.15;14.65;;;;;;;0.93;83.88;99848.53;1751988;79;25701;-85
2021/01/01 11:14:55;;;;;;;28.50;15.08;;;;;;;0.91;83.92;99848.30;1752610;80;26040;-86
2021/01/01 12:23:14;;;;;;;34.80;18.57;;;;;;;0.96;84.47;99860.34;1696066;82;25905;-86
2021/01/01 12:25:34;;;;;;;26.85;15.78;;;;;;;0.99;84.47;99864.78;1721545;81;26332;-85
2021/01/01 12:28:03;;;;;;;31.25;16.02;;;;;;;0.99;84.42;99867.36;1711870;81;25806;-87
2021/01/01 12:30:32;;;;;;;31.77;18.27;;;;;;;0.98;84.31;99872.60;1689217;82;25716;-87
2021/01/01 12:33:04;;;;;;;34.27;17.17;;;;;;;0.95;84.21;99871.08;1721625;81;25797;-87
2021/01/01 12:35:27;;;;;;;33.30;19.10;;;;;;;0.92;84.32;99867.45;1713304;81;25819;-87
2021/01/01 12:38:00;;;;;;;38.83;18.62;;;;;;;0.99;84.46;99871.69;1717224;81;25746;-87
2021/01/01 12:40:28;;;;;;;37.70;20.35;;;;;;;1.00;84.40;99872.84;1717426;81;26485;-87
2021/01/01 12:42:55;;;;;;;32.95;19.55;;;;;;;1.03;84.58;99871.80;1715845;81;25766;-88